Time;durP1;ratioP1;P1;durP2;ratioP2;P2;SDS_P1;SDS_P2;PMS_P1;PMS_P2;Temp;Humidity;BMP_temperature;BMP_pressure;BME280_temperature;BME280_humidity;BME280_pressure;Samples;Min_cycle;Max_cycle;Signal;HPM_P1;HPM_P2
2021/12/28 00:00:21;;;;;;;31.37;21.70;;;1.90;99.90;;;;;;4972024;28;20466;-67
2021/12/28 00:02:50;;;;;;;30.47;20.43;;;1.90;99.90;;;;;;4971965;28;20501;-67
2021/12/28 00:05:19;;;;;;;32.03;21.90;;;2.00;99.90;;;;;;4971946;28;20478;-67
2021/12/28 00:07:49;;;;;;;34.93;22.57;;;2.00;99.90;;;;;;4971983;28;20992;-67
2021/12/28 00:10:19;;;;;;;29.50;21.23;;;2.00;99.90;;;;;;4971874;28;20470;-67
2021/12/28 00:12:48;;;;;;;32.87;22.87;;;2.00;99.90;;;;;;4952523;28;21011;-67
2021/12/28 00:15:32;;;;;;;33.20;23.13;;;2.00;99.90;;;;;;4952510;28;20483;-67
2021/12/28 00:18:05;;;;;;;33.27;22.60;;;2.10;99.90;;;;;;4971935;28;20915;-67
2021/12/28 00:20:35;;;;;;;31.07;21.57;;;2.10;99.90;;;;;;4967824;28;21003;-67
2021/12/28 00:23:07;;;;;;;33.03;23.83;;;2.10;99.90;;;;;;4956283;28;20499;-67
2021/12/28 00:25:36;;;;;;;33.53;21.67;;;2.10;99.90;;;;;;4955755;28;20545;-67
2021/12/28 00:28:04;;;;;;;30.30;21.43;;;2.10;99.90;;;;;;4952729;28;20471;-67
2021/12/28 00:30:34;;;;;;;30.77;22.27;;;2.10;99.90;;;;;;4974352;28;20473;-67
2021/12/28 00:33:03;;;;;;;34.00;22.83;;;2.10;99.90;;;;;;4975876;28;20478;-67
2021/12/28 00:35:49;;;;;;;27.57;19.76;;;2.20;99.90;;;;;;1207165;28;10022839;-67
2021/12/28 00:38:22;;;;;;;32.00;21.87;;;2.20;99.90;;;;;;4631842;28;10001426;-67
2021/12/28 00:40:52;;;;;;;33.17;22.40;;;2.20;99.90;;;;;;4975525;28;20871;-67
2021/12/28 00:43:20;;;;;;;32.23;22.50;;;2.20;99.90;;;;;;4975596;28;21016;-67
2021/12/28 00:45:49;;;;;;;31.50;22.07;;;2.20;99.90;;;;;;4975271;28;20465;-67
2021/12/28 00:48:18;;;;;;;33.57;22.37;;;2.20;99.90;;;;;;4975396;28;20509;-67
2021/12/28 00:50:47;;;;;;;33.23;22.73;;;2.30;99.90;;;;;;4969987;28;20531;-68
2021/12/28 00:53:19;;;;;;;30.73;21.07;;;2.30;99.90;;;;;;4959671;28;20877;-67
2021/12/28 00:55:47;;;;;;;32.87;21.73;;;2.20;99.90;;;;;;4955601;28;20562;-68
2021/12/28 00:58:16;;;;;;;32.33;22.33;;;2.20;99.90;;;;;;4955859;28;20483;-67
2021/12/28 01:00:45;;;;;;;32.97;22.10;;;2.20;99.90;;;;;;4955680;28;20506;-67
2021/12/28 01:03:15;;;;;;;30.50;21.90;;;2.20;99.90;;;;;;4955807;28;20522;-68
2021/12/28 01:05:44;;;;;;;31.83;22.27;;;2.10;99.90;;;;;;4955681;28;20483;-67
2021/12/28 01:08:12;;;;;;;31.93;21.53;;;2.20;99.90;;;;;;4958984;28;20505;-67
2021/12/28 01:10:45;;;;;;;31.90;22.00;;;2.10;99.90;;;;;;4963412;28;20574;-67
2021/12/28 01:13:13;;;;;;;31.80;20.77;;;2.10;99.90;;;;;;4955570;28;20494;-67
2021/12/28 01:15:42;;;;;;;33.33;21.83;;;2.10;99.90;;;;;;4965039;28;20467;-66
2021/12/28 01:18:12;;;;;;;33.03;21.83;;;2.10;99.90;;;;;;4974876;28;20493;-67
2021/12/28 01:20:41;;;;;;;32.30;22.50;;;2.00;99.90;;;;;;4974472;28;20481;-67
2021/12/28 01:23:10;;;;;;;33.33;23.13;;;2.10;99.90;;;;;;4974813;28;20471;-67
2021/12/28 01:25:39;;;;;;;33.83;22.40;;;2.10;99.90;;;;;;4974615;28;20473;-67
2021/12/28 01:28:09;;;;;;;32.37;22.20;;;2.00;99.90;;;;;;4974866;28;20469;-66
2021/12/28 01:30:39;;;;;;;32.40;22.30;;;2.00;99.90;;;;;;4974414;28;20480;-67
2021/12/28 01:33:08;;;;;;;34.57;22.63;;;2.00;99.90;;;;;;4974535;28;20479;-67
2021/12/28 01:35:37;;;;;;;29.63;22.20;;;2.10;99.90;;;;;;4973258;28;20486;-66
2021/12/28 01:38:05;;;;;;;34.40;23.17;;;2.10;99.90;;;;;;4965955;28;20478;-67
2021/12/28 01:40:36;;;;;;;37.10;24.43;;;2.10;99.90;;;;;;4963395;28;20826;-67
2021/12/28 01:43:13;;;;;;;30.30;21.37;;;2.10;99.90;;;;;;4974485;28;20566;-67
2021/12/28 01:45:48;;;;;;;37.27;22.03;;;2.10;99.90;;;;;;4973361;28;20524;-66
2021/12/28 01:48:19;;;;;;;32.90;22.40;;;2.10;99.90;;;;;;4974163;28;20483;-67
2021/12/28 01:50:49;;;;;;;30.10;20.73;;;2.20;99.90;;;;;;4974069;28;20495;-67
2021/12/28 01:53:18;;;;;;;32.67;22.33;;;2.20;99.90;;;;;;4974224;28;20562;-67
2021/12/28 01:55:48;;;;;;;35.20;22.93;;;2.20;99.90;;;;;;4973756;28;20475;-68
2021/12/28 01:58:18;;;;;;;32.97;21.37;;;2.30;99.90;;;;;;4974147;28;21117;-67
2021/12/28 02:00:48;;;;;;;32.77;21.83;;;2.30;99.90;;;;;;4974061;28;20597;-67
2021/12/28 02:03:19;;;;;;;30.60;22.50;;;2.30;99.90;;;;;;4973870;28;20540;-67
2021/12/28 02:05:47;;;;;;;33.00;22.77;;;2.30;99.90;;;;;;4973845;28;20478;-67
2021/12/28 02:08:16;;;;;;;32.73;22.47;;;2.30;99.90;;;;;;4960880;28;20474;-67
2021/12/28 02:10:47;;;;;;;31.97;22.73;;;2.30;99.90;;;;;;4954470;28;20935;-67
2021/12/28 02:13:17;;;;;;;28.87;20.70;;;2.20;99.90;;;;;;4954584;28;20508;-66
2021/12/28 02:15:46;;;;;;;30.33;21.80;;;2.30;99.90;;;;;;4954399;28;21043;-67
2021/12/28 02:18:17;;;;;;;31.37;21.80;;;2.30;99.90;;;;;;4954543;28;21014;-67
2021/12/28 02:20:47;;;;;;;31.47;21.57;;;2.20;99.90;;;;;;4954215;28;21070;-67
2021/12/28 02:23:15;;;;;;;31.20;22.03;;;2.20;99.90;;;;;;4954447;28;20476;-67
2021/12/28 02:25:44;;;;;;;33.60;23.03;;;2.30;99.90;;;;;;4953993;28;20487;-67
2021/12/28 02:28:14;;;;;;;31.00;22.33;;;2.30;99.90;;;;;;4954251;28;20892;-67
2021/12/28 02:30:44;;;;;;;33.63;22.10;;;2.30;99.90;;;;;;4953997;28;20997;-67
2021/12/28 02:33:13;;;;;;;31.67;22.73;;;2.30;99.90;;;;;;4952993;28;20479;-67
2021/12/28 02:35:44;;;;;;;30.25;22.38;;;2.30;99.90;;;;;;1370412;28;10022707;-67
2021/12/28 02:38:14;;;;;;;33.87;22.80;;;2.30;99.90;;;;;;4611791;28;10001372;-67
2021/12/28 02:40:44;;;;;;;32.37;22.07;;;2.40;99.90;;;;;;4963433;28;20475;-67
2021/12/28 02:43:15;;;;;;;30.30;21.83;;;2.40;99.90;;;;;;4973148;28;20479;-67
2021/12/28 02:45:50;;;;;;;33.73;22.90;;;2.40;99.90;;;;;;4972896;28;20497;-67
2021/12/28 02:48:19;;;;;;;33.77;22.53;;;2.40;99.90;;;;;;4973273;28;21015;-67
2021/12/28 02:50:54;;;;;;;32.20;22.47;;;2.40;99.90;;;;;;4972956;28;20482;-67
2021/12/28 02:53:24;;;;;;;33.67;22.03;;;2.40;99.90;;;;;;4972192;28;20482;-67
2021/12/28 02:55:53;;;;;;;30.87;21.17;;;2.40;99.90;;;;;;4962685;28;20479;-67
2021/12/28 02:58:29;;;;;;;31.93;21.93;;;2.40;99.90;;;;;;4953769;28;20480;-67
2021/12/28 03:01:04;;;;;;;29.23;21.87;;;2.40;99.90;;;;;;4970156;28;20474;-67
2021/12/28 03:03:34;;;;;;;31.70;21.97;;;2.40;99.90;;;;;;4968902;28;20477;-67
2021/12/28 03:06:06;;;;;;;31.00;22.27;;;2.40;99.90;;;;;;4969146;28;20474;-67
2021/12/28 03:08:37;;;;;;;30.07;21.40;;;2.50;99.90;;;;;;4972941;28;20473;-67
2021/12/28 03:11:08;;;;;;;30.23;21.80;;;2.40;99.90;;;;;;4972488;28;20525;-65
2021/12/28 03:13:40;;;;;;;34.57;23.00;;;2.40;99.90;;;;;;4972315;28;20538;-66
2021/12/28 03:16:09;;;;;;;34.07;22.97;;;2.50;99.90;;;;;;4972490;28;20530;-67
2021/12/28 03:18:38;;;;;;;31.33;21.73;;;2.50;99.90;;;;;;4972639;28;20540;-67
2021/12/28 03:21:08;;;;;;;30.60;22.67;;;2.50;99.90;;;;;;4972355;28;20513;-67
2021/12/28 03:23:39;;;;;;;30.77;22.00;;;2.50;99.90;;;;;;4971814;28;20472;-67
2021/12/28 03:26:09;;;;;;;30.13;21.80;;;2.50;99.90;;;;;;4972465;28;20478;-67
2021/12/28 03:28:40;;;;;;;29.80;21.40;;;2.50;99.90;;;;;;4972415;28;20480;-67
2021/12/28 03:31:10;;;;;;;30.83;21.63;;;2.60;99.90;;;;;;4971831;28;21020;-67
2021/12/28 03:33:40;;;;;;;30.37;22.87;;;2.60;99.90;;;;;;4960875;28;21027;-67
2021/12/28 03:36:09;;;;;;;31.67;22.07;;;2.60;99.90;;;;;;4965430;28;20480;-67
2021/12/28 03:38:40;;;;;;;32.47;22.53;;;2.50;99.90;;;;;;4972291;28;20471;-66
2021/12/28 03:41:10;;;;;;;31.83;21.97;;;2.60;99.90;;;;;;4972123;28;21014;-67
2021/12/28 03:43:45;;;;;;;32.37;21.83;;;2.60;99.90;;;;;;4972149;28;20836;-67
2021/12/28 03:46:14;;;;;;;30.83;21.90;;;2.50;99.90;;;;;;4972013;28;20486;-67
2021/12/28 03:48:43;;;;;;;29.30;21.67;;;2.50;99.90;;;;;;4972073;28;20490;-67
2021/12/28 03:51:12;;;;;;;32.80;21.47;;;2.50;99.90;;;;;;4972170;28;20491;-67
2021/12/28 03:53:41;;;;;;;30.07;21.33;;;2.50;99.90;;;;;;4971856;28;20472;-67
2021/12/28 03:56:11;;;;;;;29.37;21.20;;;2.50;99.90;;;;;;4971838;28;20524;-67
2021/12/28 03:58:41;;;;;;;31.23;22.07;;;2.50;99.90;;;;;;4972028;28;20482;-67
2021/12/28 04:01:12;;;;;;;29.73;21.50;;;2.50;99.90;;;;;;4955143;28;20509;-67
2021/12/28 04:03:41;;;;;;;32.90;21.90;;;2.60;99.90;;;;;;4944846;28;20485;-67
2021/12/28 04:06:10;;;;;;;32.70;22.53;;;2.70;99.90;;;;;;4952545;28;20468;-67
2021/12/28 04:08:41;;;;;;;30.37;21.87;;;2.70;99.90;;;;;;4964954;28;20527;-67
2021/12/28 04:11:15;;;;;;;27.93;21.40;;;2.70;99.90;;;;;;4952420;28;20530;-67
2021/12/28 04:13:45;;;;;;;31.43;21.90;;;2.70;99.90;;;;;;4953427;28;20491;-67
2021/12/28 04:16:13;;;;;;;30.57;21.43;;;2.60;99.90;;;;;;4957991;28;20718;-67
2021/12/28 04:18:42;;;;;;;32.80;22.13;;;2.60;99.90;;;;;;4952685;28;20843;-67
2021/12/28 04:21:10;;;;;;;30.93;21.67;;;2.60;99.90;;;;;;4952210;28;20527;-68
2021/12/28 04:23:39;;;;;;;32.27;21.70;;;2.60;99.90;;;;;;4968804;28;20494;-67
2021/12/28 04:26:11;;;;;;;31.90;21.90;;;2.60;99.90;;;;;;4971647;28;21053;-67
2021/12/28 04:28:39;;;;;;;29.47;21.13;;;2.60;99.90;;;;;;4971777;28;20832;-67
2021/12/28 04:31:07;;;;;;;34.35;26.83;;;2.70;99.90;;;;;;4971042;28;20513;-66
2021/12/28 04:33:37;;;;;;;29.40;21.90;;;2.70;99.90;;;;;;4906882;28;20245;-65
2021/12/28 04:36:08;;;;;;;30.15;22.35;;;2.60;99.90;;;;;;1012230;28;10001976;-66
2021/12/28 04:38:37;;;;;;;32.50;22.20;;;2.70;99.90;;;;;;4957405;28;20243;-66
2021/12/28 04:41:06;;;;;;;30.13;21.80;;;2.70;99.90;;;;;;4963382;28;20552;-68
2021/12/28 04:43:36;;;;;;;34.00;22.60;;;2.70;99.90;;;;;;4955902;28;20479;-66
2021/12/28 04:46:05;;;;;;;34.07;23.57;;;2.70;99.90;;;;;;4959892;28;20497;-67
2021/12/28 04:48:33;;;;;;;30.50;22.30;;;2.80;99.90;;;;;;4971439;28;20499;-67
2021/12/28 04:51:01;;;;;;;33.37;24.07;;;2.90;99.90;;;;;;4971499;28;20485;-68
2021/12/28 04:53:30;;;;;;;33.77;23.10;;;2.90;99.90;;;;;;4971350;28;20490;-67
2021/12/28 04:55:58;;;;;;;32.23;22.57;;;2.80;99.90;;;;;;4971289;28;20473;-68
2021/12/28 04:58:27;;;;;;;30.83;22.67;;;2.80;99.90;;;;;;4971489;28;20471;-67
2021/12/28 05:00:56;;;;;;;32.90;22.63;;;2.90;99.90;;;;;;4971256;28;20484;-67
2021/12/28 05:03:25;;;;;;;31.03;22.43;;;2.90;99.90;;;;;;4971423;28;20824;-67
2021/12/28 05:05:53;;;;;;;30.60;21.77;;;2.90;99.90;;;;;;4971314;28;20998;-67
2021/12/28 05:08:22;;;;;;;29.50;21.77;;;2.90;99.90;;;;;;4969530;28;20510;-67
2021/12/28 05:10:52;;;;;;;29.33;21.00;;;2.90;99.90;;;;;;4959982;28;20962;-68
2021/12/28 05:13:22;;;;;;;30.77;21.80;;;2.90;99.90;;;;;;4952088;28;20562;-67
2021/12/28 05:15:52;;;;;;;29.57;21.73;;;3.00;99.90;;;;;;4964245;28;21024;-67
2021/12/28 05:18:21;;;;;;;31.33;21.70;;;3.00;99.90;;;;;;4974768;28;20476;-67
2021/12/28 05:20:49;;;;;;;27.50;20.27;;;3.00;99.90;;;;;;4974441;28;21006;-68
2021/12/28 05:23:18;;;;;;;33.27;21.83;;;3.00;99.90;;;;;;4974821;28;20477;-67
2021/12/28 05:25:46;;;;;;;32.27;21.53;;;2.90;99.90;;;;;;4974542;28;20555;-67
2021/12/28 05:28:14;;;;;;;30.47;21.67;;;3.00;99.90;;;;;;4974656;28;20498;-68
2021/12/28 05:30:42;;;;;;;30.00;21.93;;;3.00;99.90;;;;;;4974511;28;20478;-67
2021/12/28 05:33:11;;;;;;;29.43;20.37;;;3.00;99.90;;;;;;4974526;28;20482;-68
2021/12/28 05:35:40;;;;;;;31.93;22.80;;;3.00;99.90;;;;;;4966065;28;20486;-67
2021/12/28 05:38:08;;;;;;;33.17;22.47;;;3.00;99.90;;;;;;4943825;28;21017;-67
2021/12/28 05:40:36;;;;;;;31.30;22.23;;;3.00;99.90;;;;;;4944420;28;20540;-66
2021/12/28 05:43:04;;;;;;;32.20;22.60;;;3.00;99.90;;;;;;4955434;28;20483;-67
2021/12/28 05:45:33;;;;;;;32.33;23.17;;;3.00;99.90;;;;;;4958651;28;20480;-68
2021/12/28 05:48:01;;;;;;;31.53;22.27;;;3.00;99.90;;;;;;4974733;28;20841;-68
2021/12/28 05:50:29;;;;;;;31.87;22.87;;;3.00;99.90;;;;;;4974178;28;20518;-68
2021/12/28 05:52:59;;;;;;;32.63;23.07;;;3.00;99.90;;;;;;4974401;28;20979;-67
2021/12/28 05:55:27;;;;;;;29.83;23.03;;;3.00;99.90;;;;;;4970548;28;20473;-68
2021/12/28 05:57:55;;;;;;;34.13;24.13;;;3.00;99.90;;;;;;4958807;28;20482;-67
2021/12/28 06:00:24;;;;;;;34.60;23.43;;;3.00;99.90;;;;;;4954771;28;20543;-67
2021/12/28 06:02:52;;;;;;;34.90;24.27;;;3.00;99.90;;;;;;4954840;28;20476;-68
2021/12/28 06:05:20;;;;;;;34.93;24.40;;;3.00;99.90;;;;;;4954692;28;20487;-68
2021/12/28 06:07:48;;;;;;;35.20;25.10;;;3.00;99.90;;;;;;4954834;28;20882;-67
2021/12/28 06:10:18;;;;;;;35.40;24.20;;;3.00;99.90;;;;;;4954627;28;20995;-68
2021/12/28 06:12:46;;;;;;;33.70;24.30;;;3.00;99.90;;;;;;4954404;28;20612;-68
2021/12/28 06:15:14;;;;;;;35.47;23.97;;;3.00;99.90;;;;;;4954250;28;20474;-68
2021/12/28 06:17:42;;;;;;;29.47;22.67;;;3.00;99.90;;;;;;4954646;28;20518;-68
2021/12/28 06:20:11;;;;;;;34.87;25.17;;;3.00;99.90;;;;;;4954398;28;20844;-68
2021/12/28 06:22:39;;;;;;;32.87;22.70;;;3.00;99.90;;;;;;4954196;28;20480;-67
2021/12/28 06:25:12;;;;;;;34.33;24.63;;;3.10;99.90;;;;;;4954536;28;20874;-68
2021/12/28 06:27:42;;;;;;;38.87;24.57;;;3.10;99.90;;;;;;4957728;28;20512;-68
2021/12/28 06:30:11;;;;;;;33.27;22.83;;;3.00;99.90;;;;;;4973486;28;20469;-68
2021/12/28 06:32:40;;;;;;;41.30;25.77;;;3.10;99.90;;;;;;4973407;28;20482;-68
2021/12/28 06:35:13;;;;;;;36.25;24.75;;;3.10;99.90;;;;;;1762567;28;10023468;-67
2021/12/28 06:37:41;;;;;;;37.60;26.03;;;3.00;99.90;;;;;;4274564;28;10001100;-67
2021/12/28 06:40:11;;;;;;;40.27;24.33;;;3.00;99.90;;;;;;4972808;28;20531;-68
2021/12/28 06:42:41;;;;;;;34.47;24.13;;;3.00;99.90;;;;;;4956557;28;20849;-68
2021/12/28 06:45:09;;;;;;;36.13;25.13;;;3.00;99.90;;;;;;4953758;28;20500;-68
2021/12/28 06:47:38;;;;;;;36.97;25.57;;;3.00;99.90;;;;;;4942044;28;20479;-67
2021/12/28 06:50:08;;;;;;;37.30;25.13;;;3.00;99.90;;;;;;4949201;28;21007;-68
2021/12/28 06:52:36;;;;;;;37.53;25.20;;;3.00;99.90;;;;;;4953340;28;20499;-65
2021/12/28 06:55:05;;;;;;;35.17;24.43;;;3.00;99.90;;;;;;4953888;28;20473;-68
2021/12/28 06:57:33;;;;;;;34.13;23.73;;;3.00;99.90;;;;;;4962094;28;20895;-68
2021/12/28 07:00:05;;;;;;;39.70;26.23;;;3.00;99.90;;;;;;4957582;28;20475;-68
2021/12/28 07:02:34;;;;;;;37.30;26.30;;;3.00;99.90;;;;;;4952961;28;20480;-68
2021/12/28 07:05:02;;;;;;;36.30;24.63;;;3.00;99.90;;;;;;4964776;28;20496;-68
2021/12/28 07:07:30;;;;;;;38.43;25.20;;;3.00;99.90;;;;;;4957369;28;20872;-68
2021/12/28 07:09:58;;;;;;;37.53;25.67;;;3.00;99.90;;;;;;4953369;28;20459;-68
2021/12/28 07:12:27;;;;;;;36.67;24.87;;;3.00;99.90;;;;;;4951255;28;20483;-67
2021/12/28 07:14:55;;;;;;;35.77;25.07;;;3.00;99.90;;;;;;4950520;28;20836;-68
2021/12/28 07:17:26;;;;;;;42.20;26.27;;;3.10;99.90;;;;;;4953266;28;20502;-67
2021/12/28 07:19:55;;;;;;;37.57;25.13;;;3.00;99.90;;;;;;4953392;28;20889;-67
2021/12/28 07:22:23;;;;;;;38.17;25.07;;;3.00;99.90;;;;;;4952958;28;20476;-68
2021/12/28 07:24:51;;;;;;;40.23;26.60;;;3.00;99.90;;;;;;4958562;28;20483;-68
2021/12/28 07:27:19;;;;;;;38.80;25.70;;;3.00;99.90;;;;;;4972220;28;20483;-68
2021/12/28 07:29:47;;;;;;;37.13;24.57;;;3.00;99.90;;;;;;4972050;28;20581;-68
2021/12/28 07:32:16;;;;;;;36.60;24.63;;;3.00;99.90;;;;;;4959074;28;20540;-68
2021/12/28 07:34:45;;;;;;;35.47;24.13;;;3.00;99.90;;;;;;4952646;28;20480;-68
2021/12/28 07:37:14;;;;;;;38.03;24.40;;;3.10;99.90;;;;;;4953019;28;20572;-68
2021/12/28 07:39:42;;;;;;;38.30;25.07;;;3.10;99.90;;;;;;4952468;28;20490;-68
2021/12/28 07:42:10;;;;;;;40.70;25.90;;;3.10;99.90;;;;;;4952160;28;20507;-67
2021/12/28 07:44:38;;;;;;;33.67;23.97;;;3.10;99.90;;;;;;4969374;28;20477;-67
2021/12/28 07:47:07;;;;;;;35.73;24.43;;;3.10;99.90;;;;;;4973780;28;20515;-68
2021/12/28 07:49:35;;;;;;;36.67;24.73;;;3.10;99.90;;;;;;4957394;28;20481;-68
2021/12/28 07:52:06;;;;;;;37.17;24.90;;;3.10;99.90;;;;;;4968622;28;20512;-68
2021/12/28 07:54:34;;;;;;;37.17;25.53;;;3.00;99.90;;;;;;4971983;28;20480;-68
2021/12/28 07:57:03;;;;;;;37.93;24.47;;;3.00;99.90;;;;;;4960496;28;20479;-68
2021/12/28 07:59:31;;;;;;;35.83;24.33;;;3.00;99.90;;;;;;4952464;28;20463;-66
2021/12/28 08:01:59;;;;;;;33.17;22.37;;;3.00;99.90;;;;;;4952580;28;20865;-68
2021/12/28 08:04:28;;;;;;;37.73;25.43;;;2.90;99.90;;;;;;4952628;28;20953;-67
2021/12/28 08:06:56;;;;;;;35.93;24.20;;;2.90;99.90;;;;;;4947025;28;23088;-68
2021/12/28 08:09:25;;;;;;;37.90;25.83;;;2.90;99.90;;;;;;4952439;28;20485;-68
2021/12/28 08:11:53;;;;;;;35.83;24.10;;;2.90;99.90;;;;;;4954545;28;20490;-68
2021/12/28 08:14:21;;;;;;;36.30;23.57;;;2.90;99.90;;;;;;4970068;28;20474;-67
2021/12/28 08:16:49;;;;;;;33.80;23.27;;;2.90;99.90;;;;;;4970051;28;20558;-68
2021/12/28 08:19:18;;;;;;;37.00;24.60;;;2.90;99.90;;;;;;4970934;28;20490;-67
2021/12/28 08:21:46;;;;;;;35.20;23.73;;;2.90;99.90;;;;;;4957334;28;20464;-68
2021/12/28 08:24:14;;;;;;;34.97;23.40;;;3.00;99.90;;;;;;4942830;28;20510;-66
2021/12/28 08:26:44;;;;;;;37.23;23.63;;;3.00;99.90;;;;;;4951936;28;20485;-67
2021/12/28 08:29:12;;;;;;;35.50;24.17;;;3.00;99.90;;;;;;4952409;28;20500;-68
2021/12/28 08:31:40;;;;;;;37.07;24.83;;;3.00;99.90;;;;;;4952128;28;20998;-68
2021/12/28 08:34:17;;;;;;;31.89;20.99;;;3.00;99.90;;;;;;3778903;28;10021872;-67
2021/12/28 08:36:45;;;;;;;36.80;25.45;;;3.00;99.90;;;;;;2392884;28;10001997;-68
2021/12/28 08:39:13;;;;;;;34.67;23.47;;;3.10;99.90;;;;;;4953014;28;20287;-68
2021/12/28 08:41:41;;;;;;;34.80;23.53;;;3.10;99.90;;;;;;4958247;28;20548;-67
2021/12/28 08:44:11;;;;;;;34.67;24.10;;;3.10;99.90;;;;;;4979195;28;20572;-68
2021/12/28 08:46:39;;;;;;;35.77;23.50;;;3.10;99.90;;;;;;4958006;28;20510;-68
2021/12/28 08:49:08;;;;;;;39.30;25.23;;;3.10;99.90;;;;;;4952338;28;20541;-68
2021/12/28 08:51:36;;;;;;;38.63;24.60;;;3.10;99.90;;;;;;4954736;28;20481;-68
2021/12/28 08:54:04;;;;;;;37.13;25.40;;;3.20;99.90;;;;;;4963582;28;20480;-67
2021/12/28 08:56:32;;;;;;;37.37;25.03;;;3.10;99.90;;;;;;4963818;28;20495;-68
2021/12/28 08:59:01;;;;;;;39.87;24.43;;;3.10;99.90;;;;;;4966316;28;20481;-66
2021/12/28 09:01:30;;;;;;;39.50;25.97;;;3.10;99.90;;;;;;4965523;28;20602;-68
2021/12/28 09:03:59;;;;;;;41.17;25.53;;;3.10;99.90;;;;;;4966566;28;20465;-67
2021/12/28 09:06:27;;;;;;;36.87;23.67;;;3.10;99.90;;;;;;4966870;28;20552;-67
2021/12/28 09:08:56;;;;;;;37.83;22.90;;;3.10;99.90;;;;;;4966114;28;20476;-66
2021/12/28 09:11:26;;;;;;;39.03;23.20;;;3.10;99.90;;;;;;4964909;28;21377;-67
2021/12/28 09:13:58;;;;;;;39.83;23.33;;;3.10;99.90;;;;;;4968754;28;20477;-68
2021/12/28 09:16:32;;;;;;;40.70;24.20;;;3.10;99.90;;;;;;4951659;28;20875;-68
2021/12/28 09:19:02;;;;;;;38.77;23.73;;;3.20;99.90;;;;;;4968393;28;21205;-68
2021/12/28 09:21:31;;;;;;;41.20;24.13;;;3.10;99.90;;;;;;4949601;28;20484;-67
2021/12/28 09:24:01;;;;;;;39.40;23.87;;;3.20;99.90;;;;;;4944958;28;20954;-67
2021/12/28 09:26:50;;;;;;;41.53;24.17;;;3.20;99.90;;;;;;4945866;28;20511;-68
2021/12/28 09:29:20;;;;;;;44.40;24.23;;;3.20;99.90;;;;;;4947228;28;20479;-67
2021/12/28 09:31:51;;;;;;;44.07;24.53;;;3.30;99.90;;;;;;4928811;28;21037;-67
2021/12/28 09:34:21;;;;;;;41.07;24.03;;;3.20;99.90;;;;;;4947369;28;20491;-67
2021/12/28 09:36:59;;;;;;;39.23;22.63;;;3.30;99.90;;;;;;4946575;28;21012;-67
2021/12/28 09:39:30;;;;;;;42.60;24.10;;;3.30;99.90;;;;;;4947252;28;20550;-67
2021/12/28 09:42:02;;;;;;;41.67;23.47;;;3.30;99.90;;;;;;4943264;28;20478;-68
2021/12/28 09:44:35;;;;;;;41.03;24.00;;;3.40;99.90;;;;;;4946172;28;20487;-67
2021/12/28 09:47:08;;;;;;;39.73;22.30;;;3.30;99.90;;;;;;4945628;28;20483;-67
2021/12/28 09:49:39;;;;;;;41.53;23.57;;;3.40;99.90;;;;;;4956823;28;20482;-67
2021/12/28 09:52:09;;;;;;;42.70;23.50;;;3.40;99.90;;;;;;4964492;28;20482;-67
2021/12/28 09:54:38;;;;;;;44.23;25.67;;;3.40;99.90;;;;;;4965202;28;21001;-67
2021/12/28 09:57:08;;;;;;;44.40;23.90;;;3.40;99.90;;;;;;4966084;28;20478;-68
2021/12/28 09:59:38;;;;;;;44.70;23.70;;;3.50;99.90;;;;;;4963146;28;22117;-67
2021/12/28 10:02:10;;;;;;;43.73;24.17;;;3.50;99.90;;;;;;4946646;28;20572;-68
2021/12/28 10:04:54;;;;;;;48.57;23.67;;;3.50;99.90;;;;;;4948824;28;20888;-68
2021/12/28 10:07:31;;;;;;;41.30;23.57;;;3.50;99.90;;;;;;4963936;28;20468;-67
2021/12/28 10:10:04;;;;;;;43.33;23.10;;;3.40;99.90;;;;;;4962957;28;20485;-67
2021/12/28 10:12:36;;;;;;;42.93;22.03;;;3.50;99.90;;;;;;4965268;28;20591;-67
2021/12/28 10:15:08;;;;;;;46.97;23.93;;;3.50;99.90;;;;;;4965443;28;20526;-67
2021/12/28 10:17:43;;;;;;;46.60;24.23;;;3.60;99.90;;;;;;4965545;28;20560;-68
2021/12/28 10:20:16;;;;;;;42.70;22.90;;;3.60;99.90;;;;;;4963001;28;20519;-67
2021/12/28 10:22:52;;;;;;;43.27;23.60;;;3.60;99.90;;;;;;4963780;28;20471;-67
2021/12/28 10:25:24;;;;;;;42.97;23.03;;;3.60;99.90;;;;;;4963423;28;20488;-67
2021/12/28 10:27:57;;;;;;;46.03;23.30;;;3.60;99.90;;;;;;4965644;28;21289;-66
2021/12/28 10:30:28;;;;;;;40.00;23.17;;;3.60;99.90;;;;;;4962602;28;20497;-66
2021/12/28 10:33:03;;;;;;;46.70;22.97;;;3.70;99.90;;;;;;4962381;28;20471;-67
2021/12/28 10:35:50;;;;;;;42.20;23.04;;;3.70;99.90;;;;;;2478922;28;10003297;-67
2021/12/28 10:38:22;;;;;;;45.17;23.80;;;3.70;99.90;;;;;;3931499;28;10001821;-67
2021/12/28 10:40:54;;;;;;;48.97;24.03;;;3.70;99.90;;;;;;4961026;28;20483;-67
2021/12/28 10:43:24;;;;;;;49.43;24.73;;;3.80;99.90;;;;;;4964412;28;20577;-66
2021/12/28 10:45:59;;;;;;;44.30;23.97;;;3.80;99.90;;;;;;4963341;28;21096;-68
2021/12/28 10:48:32;;;;;;;52.00;25.37;;;3.80;99.90;;;;;;4964344;28;20893;-67
2021/12/28 10:51:04;;;;;;;45.07;23.73;;;3.90;99.90;;;;;;4962495;28;20896;-68
2021/12/28 10:53:43;;;;;;;48.60;25.17;;;3.90;99.90;;;;;;4965137;28;20897;-67
2021/12/28 10:56:12;;;;;;;46.83;23.50;;;4.00;99.90;;;;;;4964504;28;20488;-67
2021/12/28 10:58:42;;;;;;;46.07;23.83;;;3.90;99.90;;;;;;4964341;28;20476;-66
2021/12/28 11:01:13;;;;;;;44.53;23.27;;;4.00;99.90;;;;;;4963062;28;20566;-68
2021/12/28 11:03:45;;;;;;;51.27;25.63;;;4.00;99.90;;;;;;4966587;28;20481;-68
2021/12/28 11:06:17;;;;;;;44.90;23.53;;;4.00;99.90;;;;;;4966979;28;20612;-68
2021/12/28 11:08:48;;;;;;;50.57;23.90;;;4.00;99.90;;;;;;4966436;28;20557;-68
2021/12/28 11:11:19;;;;;;;43.47;24.93;;;4.00;99.90;;;;;;4964786;28;20536;-67
2021/12/28 11:13:49;;;;;;;45.40;24.03;;;4.10;99.90;;;;;;4965118;28;20470;-67
2021/12/28 11:16:20;;;;;;;47.30;23.87;;;4.10;99.90;;;;;;4966200;28;20553;-68
2021/12/28 11:18:52;;;;;;;43.70;24.20;;;4.10;99.90;;;;;;4966815;28;20474;-68
2021/12/28 11:21:22;;;;;;;47.57;23.37;;;4.00;99.90;;;;;;4963934;28;20497;-67
2021/12/28 11:23:53;;;;;;;46.83;24.83;;;4.10;99.90;;;;;;4966129;28;20553;-67
2021/12/28 11:26:24;;;;;;;42.97;23.90;;;4.20;99.90;;;;;;4966027;28;20880;-68
2021/12/28 11:28:56;;;;;;;45.80;23.70;;;4.10;99.90;;;;;;4965742;28;20565;-68
2021/12/28 11:31:28;;;;;;;47.87;24.13;;;4.20;99.90;;;;;;4962822;28;20587;-66
2021/12/28 11:34:07;;;;;;;44.63;24.10;;;4.20;99.90;;;;;;4965048;28;20485;-67
2021/12/28 11:36:37;;;;;;;47.07;24.77;;;4.20;99.90;;;;;;4964376;28;20564;-68
2021/12/28 11:39:09;;;;;;;43.57;24.17;;;4.30;99.90;;;;;;4964653;28;20570;-69
2021/12/28 11:41:38;;;;;;;41.57;23.20;;;4.30;99.90;;;;;;4943652;28;21087;-68
2021/12/28 11:44:07;;;;;;;45.07;24.03;;;4.50;99.90;;;;;;4945063;28;20493;-67
2021/12/28 11:46:36;;;;;;;44.50;24.47;;;4.60;99.90;;;;;;4960779;28;20540;-68
2021/12/28 11:49:08;;;;;;;44.03;21.27;;;4.50;99.90;;;;;;4956541;28;20618;-68
2021/12/28 11:51:36;;;;;;;42.30;23.70;;;4.50;99.90;;;;;;4961024;28;20504;-68
2021/12/28 11:54:07;;;;;;;42.90;24.63;;;4.50;99.90;;;;;;4962456;28;20488;-68
2021/12/28 11:56:39;;;;;;;38.33;22.17;;;4.50;99.90;;;;;;4959271;28;20981;-68
2021/12/28 11:59:10;;;;;;;43.33;24.73;;;4.40;99.90;;;;;;4963964;28;20837;-67
2021/12/28 12:02:00;;;;;;;37.90;23.27;;;4.40;99.90;;;;;;4961067;28;21092;-67
2021/12/28 12:04:50;;;;;;;42.33;22.80;;;4.50;99.90;;;;;;4965481;28;20474;-69
2021/12/28 12:07:39;;;;;;;44.83;23.47;;;4.60;99.90;;;;;;4965866;28;20916;-69
2021/12/28 12:10:31;;;;;;;39.37;22.40;;;4.60;99.90;;;;;;4964016;28;20487;-68
2021/12/28 12:13:14;;;;;;;36.73;22.13;;;4.50;99.90;;;;;;4965574;28;20985;-69
2021/12/28 12:15:45;;;;;;;39.80;22.63;;;4.60;99.90;;;;;;4966046;28;20487;-68
2021/12/28 12:18:18;;;;;;;41.83;22.83;;;4.60;99.90;;;;;;4965183;28;20519;-66
2021/12/28 12:20:54;;;;;;;35.93;22.43;;;4.60;99.90;;;;;;4963828;28;20493;-68
2021/12/28 12:23:28;;;;;;;40.13;22.50;;;4.60;99.90;;;;;;4964932;28;20499;-69
2021/12/28 12:26:00;;;;;;;41.83;22.73;;;5.00;99.90;;;;;;4969402;28;20963;-68
2021/12/28 12:28:45;;;;;;;39.23;23.13;;;4.90;99.90;;;;;;4967332;28;20458;-68
2021/12/28 12:31:32;;;;;;;38.33;22.97;;;4.90;99.90;;;;;;4970676;28;20940;-68
2021/12/28 12:34:37;;;;;;;34.83;20.73;;;4.90;99.90;;;;;;4059497;28;10002039;-68
2021/12/28 12:37:17;;;;;;;35.03;20.20;;;4.90;99.90;;;;;;4115567;28;10002153;-68
2021/12/28 12:39:53;;;;;;;39.53;22.53;;;5.00;99.90;;;;;;4972853;28;21001;-69
2021/12/28 12:42:21;;;;;;;36.40;22.47;;;5.20;99.90;;;;;;4969546;28;20534;-68
2021/12/28 12:44:49;;;;;;;34.60;21.50;;;5.10;99.90;;;;;;4966165;28;20480;-69
2021/12/28 12:47:20;;;;;;;37.00;21.03;;;4.80;99.90;;;;;;4975413;28;20483;-69
2021/12/28 12:50:05;;;;;;;33.77;20.47;;;4.90;99.90;;;;;;4974593;28;20577;-69
2021/12/28 12:52:35;;;;;;;32.77;20.10;;;4.80;99.90;;;;;;4974985;28;21080;-69